createdAt,value
2019-02-14T08:20:24.738Z,7.40
2019-02-14T08:23:47.566Z,7.50
2019-02-14T08:27:09.920Z,7.60
2019-02-14T08:30:32.626Z,7.60
2019-02-14T08:33:55.282Z,7.70
2019-02-14T08:37:21.008Z,7.80
2019-02-14T08:40:43.642Z,7.80
2019-02-14T08:44:06.554Z,7.90
2019-02-14T08:47:29.467Z,7.90
2019-02-14T08:50:52.131Z,7.90
2019-02-14T08:54:14.923Z,8.00
2019-02-14T08:57:37.224Z,8.00
2019-02-14T09:00:59.583Z,8.10
2019-02-14T09:04:22.024Z,8.20
2019-02-14T09:07:44.496Z,8.20
2019-02-14T09:11:07.224Z,8.30
2019-02-14T09:14:29.698Z,8.40
2019-02-14T09:17:52.136Z,8.50
2019-02-14T09:21:14.627Z,8.60
2019-02-14T09:24:36.763Z,8.70
2019-02-14T09:27:59.228Z,8.80
2019-02-14T09:31:21.626Z,8.90
2019-02-14T09:34:44.138Z,8.90
2019-02-14T09:38:06.625Z,8.90
2019-02-14T09:41:29.118Z,9.00
2019-02-14T09:44:51.827Z,9.10
2019-02-14T09:48:14.419Z,9.10
2019-02-14T09:51:36.744Z,9.20
2019-02-14T09:54:59.130Z,9.30
2019-02-14T09:58:22.680Z,9.40
2019-02-14T10:01:45.355Z,9.40
2019-02-14T10:05:08.408Z,9.50
2019-02-14T10:08:30.828Z,9.50
2019-02-14T10:11:53.289Z,9.50
2019-02-14T10:15:16.148Z,9.50
2019-02-14T10:18:39.018Z,9.50
2019-02-14T10:22:01.314Z,9.50
2019-02-14T10:25:23.681Z,9.60
2019-02-14T10:28:46.018Z,9.50
2019-02-14T10:32:08.590Z,9.50
2019-02-14T10:35:31.142Z,9.50
2019-02-14T10:38:53.267Z,9.70
2019-02-14T10:42:16.027Z,9.90
2019-02-14T10:45:38.380Z,10.00
2019-02-14T10:49:00.898Z,9.90
2019-02-14T10:52:23.349Z,10.00
2019-02-14T10:55:45.816Z,10.00
2019-02-14T10:59:08.431Z,9.90
2019-02-14T11:02:30.976Z,9.80
2019-02-14T11:05:53.640Z,9.80
2019-02-14T11:09:15.852Z,9.70
2019-02-14T11:12:38.724Z,9.80
2019-02-14T11:16:01.126Z,9.90
2019-02-14T11:19:23.606Z,9.60
2019-02-14T11:22:46.064Z,9.60
2019-02-14T11:26:08.776Z,9.60
2019-02-14T11:29:31.379Z,9.80
2019-02-14T11:32:54.009Z,10.10
2019-02-14T11:36:16.609Z,10.20
2019-02-14T11:39:39.030Z,10.20
2019-02-14T11:43:01.547Z,10.20
2019-02-14T11:46:24.236Z,10.10
2019-02-14T11:49:47.173Z,10.20
2019-02-14T11:53:14.084Z,10.20
2019-02-14T11:56:34.344Z,10.10
2019-02-14T11:59:56.807Z,9.80
2019-02-14T12:03:19.078Z,9.80
2019-02-14T12:06:41.755Z,9.70
2019-02-14T12:10:13.270Z,9.80
2019-02-14T12:13:29.432Z,9.90
2019-02-14T12:16:52.292Z,9.90
2019-02-14T12:20:15.213Z,9.90
2019-02-14T12:23:38.160Z,9.90
2019-02-14T12:27:01.143Z,10.00
2019-02-14T12:30:23.893Z,10.10
2019-02-14T12:33:46.242Z,10.10
2019-02-14T12:37:08.576Z,10.10
2019-02-14T12:40:31.462Z,10.10
2019-02-14T12:43:54.194Z,10.10
2019-02-14T12:47:17.014Z,10.20
2019-02-14T12:50:39.626Z,10.20
2019-02-14T12:54:02.022Z,10.30
2019-02-14T12:57:24.436Z,10.40
2019-02-14T13:00:47.178Z,10.40
2019-02-14T13:04:09.313Z,10.30
2019-02-14T13:07:31.449Z,10.20
2019-02-14T13:10:53.947Z,10.20
2019-02-14T13:14:16.429Z,10.10
2019-02-14T13:17:39.090Z,10.20
2019-02-14T13:21:01.820Z,10.30
2019-02-14T13:24:24.259Z,10.30
2019-02-14T13:27:46.791Z,10.30
2019-02-14T13:31:09.349Z,10.30
2019-02-14T13:34:31.901Z,10.30
2019-02-14T13:37:54.513Z,10.30
2019-02-14T13:41:16.921Z,10.30
2019-02-14T13:44:39.559Z,10.30
2019-02-14T13:48:02.226Z,10.30
2019-02-14T13:51:24.998Z,10.30
2019-02-14T13:54:47.738Z,10.30
2019-02-14T13:58:10.294Z,10.30
2019-02-14T14:01:32.955Z,10.30
2019-02-14T14:04:55.641Z,10.40
2019-02-14T14:08:18.307Z,10.40
2019-02-14T14:11:41.116Z,10.50
2019-02-14T14:15:04.220Z,10.50
2019-02-14T14:18:26.986Z,10.50
2019-02-14T14:21:49.819Z,10.50
2019-02-14T14:25:12.733Z,10.40
2019-02-14T14:28:35.269Z,10.40
2019-02-14T14:31:57.772Z,10.40
2019-02-14T14:35:20.435Z,10.40
2019-02-14T14:38:42.818Z,10.40
2019-02-14T14:42:06.573Z,10.30
2019-02-14T14:45:43.181Z,10.20
2019-02-14T14:49:05.535Z,10.30
2019-02-14T14:52:27.617Z,10.20
2019-02-14T14:55:50.201Z,10.20
2019-02-14T14:59:12.365Z,10.10
2019-02-14T15:02:34.842Z,10.10
2019-02-14T15:05:57.921Z,10.10
2019-02-14T15:09:20.775Z,10.00
2019-02-14T15:12:43.473Z,9.90
2019-02-14T15:16:05.898Z,9.80
2019-02-14T15:19:28.561Z,9.70
2019-02-14T15:22:51.095Z,9.70
2019-02-14T15:26:13.909Z,9.60
2019-02-14T15:29:36.491Z,9.60
2019-02-14T15:32:59.196Z,9.50
2019-02-14T15:36:22.129Z,9.40
2019-02-14T15:39:45.945Z,9.30
2019-02-14T15:43:08.430Z,9.20
2019-02-14T15:46:31.021Z,9.10
2019-02-14T15:49:53.503Z,9.00
2019-02-14T15:53:17.443Z,8.90
2019-02-14T15:56:39.996Z,8.70
2019-02-14T16:00:04.646Z,8.60
2019-02-14T16:03:26.856Z,8.50
2019-02-14T16:06:50.562Z,8.50
2019-02-14T16:10:18.522Z,8.40
2019-02-14T16:13:38.026Z,8.30
2019-02-14T16:17:00.471Z,8.20
2019-02-14T16:20:23.088Z,8.10
2019-02-14T16:23:45.469Z,8.00
2019-02-14T16:27:07.638Z,7.90
2019-02-14T16:30:31.102Z,7.70
2019-02-14T16:33:54.156Z,7.60
2019-02-14T16:37:16.725Z,7.50
2019-02-14T16:40:39.442Z,7.40
2019-02-14T16:44:01.818Z,7.30
2019-02-14T16:47:24.423Z,7.20
2019-02-14T16:50:47.288Z,7.10
2019-02-14T16:54:09.880Z,7.00
2019-02-14T16:57:32.479Z,6.80
2019-02-14T17:00:54.657Z,6.70
2019-02-14T17:04:18.617Z,6.70
2019-02-14T17:07:41.081Z,6.60
2019-02-14T17:11:03.783Z,6.60
2019-02-14T17:14:26.452Z,6.50
2019-02-14T17:17:48.911Z,6.50
2019-02-14T17:21:11.493Z,6.50
2019-02-14T17:24:33.963Z,6.50
2019-02-14T17:27:56.095Z,6.40
2019-02-14T17:31:18.574Z,6.40
2019-02-14T17:34:41.206Z,6.30
2019-02-14T17:38:03.627Z,6.30
2019-02-14T17:41:26.330Z,6.30
2019-02-14T17:44:49.056Z,6.30
2019-02-14T17:48:11.420Z,6.30
2019-02-14T17:51:34.216Z,6.30
2019-02-14T17:54:56.297Z,6.30
2019-02-14T17:58:18.965Z,6.30
2019-02-14T18:01:41.461Z,6.20
2019-02-14T18:05:04.054Z,6.10
2019-02-14T18:08:26.547Z,6.00
2019-02-14T18:11:49.028Z,6.00
2019-02-14T18:15:12.066Z,6.00
2019-02-14T18:18:34.550Z,6.00
2019-02-14T18:21:58.161Z,6.00
2019-02-14T18:25:21.007Z,5.90
2019-02-14T18:28:43.580Z,5.90
2019-02-14T18:32:06.366Z,6.00
2019-02-14T18:35:29.106Z,6.00
2019-02-14T18:38:51.994Z,6.00
2019-02-14T18:42:14.655Z,5.90
2019-02-14T18:45:37.598Z,5.90
2019-02-14T18:49:00.433Z,6.00
2019-02-14T18:52:23.214Z,5.90
2019-02-14T18:55:45.781Z,5.90
2019-02-14T18:59:07.940Z,5.80
2019-02-14T19:02:30.537Z,5.80
2019-02-14T19:05:53.132Z,5.70
2019-02-14T19:09:15.586Z,5.70
2019-02-14T19:12:37.948Z,5.60
2019-02-14T19:16:00.499Z,5.60
2019-02-14T19:19:23.218Z,5.60
2019-02-14T19:22:45.305Z,5.50
2019-02-14T19:26:08.041Z,5.50
2019-02-14T19:29:30.515Z,5.50
2019-02-14T19:32:53.188Z,5.30
2019-02-14T19:36:15.832Z,5.30
2019-02-14T19:39:38.286Z,5.20
2019-02-14T19:43:00.872Z,5.10
2019-02-14T19:46:23.681Z,5.00
2019-02-14T19:49:46.167Z,5.10
2019-02-14T19:53:08.676Z,5.00
2019-02-14T19:56:31.129Z,5.10
2019-02-14T19:59:53.856Z,5.00
2019-02-14T20:03:16.521Z,5.00
2019-02-14T20:06:38.968Z,4.80
2019-02-14T20:10:01.571Z,4.70
2019-02-14T20:13:24.178Z,4.70
2019-02-14T20:16:46.837Z,4.70
2019-02-14T20:20:09.885Z,4.60
2019-02-14T20:23:32.193Z,4.60
2019-02-14T20:26:54.842Z,4.60
2019-02-14T20:30:17.381Z,4.50
2019-02-14T20:33:39.783Z,4.60
2019-02-14T20:37:02.118Z,4.60
2019-02-14T20:40:24.563Z,4.50
2019-02-14T20:43:46.969Z,4.40
2019-02-14T20:47:09.314Z,4.40
2019-02-14T20:50:32.014Z,4.30
2019-02-14T20:53:54.854Z,4.30
2019-02-14T20:57:17.244Z,4.20
2019-02-14T21:00:39.918Z,4.20
2019-02-14T21:04:02.356Z,4.10
2019-02-14T21:07:24.919Z,4.10
2019-02-14T21:10:47.411Z,4.10
2019-02-14T21:14:09.991Z,4.10
2019-02-14T21:17:32.700Z,4.00
2019-02-14T21:20:54.875Z,4.00
2019-02-14T21:24:17.357Z,4.00
2019-02-14T21:27:40.176Z,4.00
2019-02-14T21:31:02.706Z,4.00
2019-02-14T21:34:25.558Z,4.00
2019-02-14T21:37:48.272Z,3.90
2019-02-14T21:41:10.774Z,4.00
2019-02-14T21:44:33.609Z,4.00
2019-02-14T21:47:55.881Z,3.80
2019-02-14T21:51:18.246Z,3.70
2019-02-14T21:54:40.873Z,3.70
2019-02-14T21:58:05.035Z,3.70
2019-02-14T22:01:27.685Z,3.60
2019-02-14T22:04:50.225Z,3.60
2019-02-14T22:08:13.054Z,3.50
2019-02-14T22:11:35.452Z,3.50
2019-02-14T22:14:58.125Z,3.50
2019-02-14T22:18:20.683Z,3.40
2019-02-14T22:21:42.889Z,3.30
2019-02-14T22:25:06.110Z,3.30
2019-02-14T22:28:28.517Z,3.40
2019-02-14T22:31:50.734Z,3.50
2019-02-14T22:35:13.496Z,3.40
2019-02-14T22:38:36.163Z,3.40
2019-02-14T22:41:58.673Z,3.40
2019-02-14T22:45:21.832Z,3.40
2019-02-14T22:48:44.307Z,3.40
2019-02-14T22:52:07.055Z,3.40
2019-02-14T22:55:29.101Z,3.40
2019-02-14T22:58:51.772Z,3.30
2019-02-14T23:02:14.280Z,3.30
2019-02-14T23:05:37.235Z,3.30
2019-02-14T23:08:59.378Z,3.30
2019-02-14T23:12:21.762Z,3.20
2019-02-14T23:15:44.343Z,3.20
2019-02-14T23:19:06.863Z,3.10
2019-02-14T23:22:29.334Z,3.10
2019-02-14T23:25:52.152Z,3.10
2019-02-14T23:29:15.007Z,3.10
2019-02-14T23:32:37.656Z,3.00
2019-02-14T23:36:00.305Z,3.00
2019-02-14T23:39:23.157Z,3.10
2019-02-14T23:42:45.968Z,3.00
2019-02-14T23:46:08.488Z,2.90
2019-02-14T23:49:31.043Z,2.90
2019-02-14T23:52:53.790Z,2.90
2019-02-14T23:56:21.615Z,2.80
2019-02-14T23:59:43.981Z,2.70
